sensor_id;sensor_type;location;lat;lon;timestamp;temperature;humidity
3086;DHT22;52812;48.960;9.108;2024-01-30T00:01:15;-0.30;99.90
3086;DHT22;52812;48.960;9.108;2024-01-30T00:03:41;-0.20;99.90
3086;DHT22;52812;48.960;9.108;2024-01-30T00:06:07;-0.20;99.90
3086;DHT22;52812;48.960;9.108;2024-01-30T00:08:33;-0.20;99.90
3086;DHT22;52812;48.960;9.108;2024-01-30T00:10:59;-0.20;99.90
3086;DHT22;52812;48.960;9.108;2024-01-30T00:13:24;-0.20;99.90
3086;DHT22;52812;48.960;9.108;2024-01-30T00:15:50;-0.20;99.90
3086;DHT22;52812;48.960;9.108;2024-01-30T00:18:16;-0.20;99.90
3086;DHT22;52812;48.960;9.108;2024-01-30T00:20:42;-0.30;99.90
3086;DHT22;52812;48.960;9.108;2024-01-30T00:23:08;-0.30;99.90
3086;DHT22;52812;48.960;9.108;2024-01-30T00:25:34;-0.20;99.90
3086;DHT22;52812;48.960;9.108;2024-01-30T00:28:00;-0.30;99.90
3086;DHT22;52812;48.960;9.108;2024-01-30T00:30:25;-0.30;99.90
3086;DHT22;52812;48.960;9.108;2024-01-30T00:32:51;-0.30;99.90
3086;DHT22;52812;48.960;9.108;2024-01-30T00:35:16;-0.30;99.90
3086;DHT22;52812;48.960;9.108;2024-01-30T00:37:42;-0.30;99.90
3086;DHT22;52812;48.960;9.108;2024-01-30T00:40:08;-0.30;99.90
3086;DHT22;52812;48.960;9.108;2024-01-30T00:42:43;-0.40;99.90
3086;DHT22;52812;48.960;9.108;2024-01-30T00:45:15;-0.40;99.90
3086;DHT22;52812;48.960;9.108;2024-01-30T00:47:42;-0.30;99.90
3086;DHT22;52812;48.960;9.108;2024-01-30T00:50:08;-0.30;99.90
3086;DHT22;52812;48.960;9.108;2024-01-30T00:52:33;-0.30;99.90
3086;DHT22;52812;48.960;9.108;2024-01-30T00:55:00;-0.30;99.90
3086;DHT22;52812;48.960;9.108;2024-01-30T00:57:25;-0.30;99.90
3086;DHT22;52812;48.960;9.108;2024-01-30T00:59:52;-0.40;99.90
3086;DHT22;52812;48.960;9.108;2024-01-30T01:02:18;-0.40;99.90
3086;DHT22;52812;48.960;9.108;2024-01-30T01:04:44;-0.40;99.90
3086;DHT22;52812;48.960;9.108;2024-01-30T01:07:10;-0.40;99.90
3086;DHT22;52812;48.960;9.108;2024-01-30T01:09:36;-0.40;99.90
3086;DHT22;52812;48.960;9.108;2024-01-30T01:12:02;-0.40;99.90
3086;DHT22;52812;48.960;9.108;2024-01-30T01:14:28;-0.50;99.90
3086;DHT22;52812;48.960;9.108;2024-01-30T01:16:54;-0.50;99.90
3086;DHT22;52812;48.960;9.108;2024-01-30T01:19:19;-0.40;99.90
3086;DHT22;52812;48.960;9.108;2024-01-30T01:21:45;-0.30;99.90
3086;DHT22;52812;48.960;9.108;2024-01-30T01:24:10;-0.30;99.90
3086;DHT22;52812;48.960;9.108;2024-01-30T01:26:36;-0.30;99.90
3086;DHT22;52812;48.960;9.108;2024-01-30T01:29:02;-0.40;99.90
3086;DHT22;52812;48.960;9.108;2024-01-30T01:31:29;-0.50;99.90
3086;DHT22;52812;48.960;9.108;2024-01-30T01:33:55;-0.40;99.90
3086;DHT22;52812;48.960;9.108;2024-01-30T01:36:21;-0.40;99.90
3086;DHT22;52812;48.960;9.108;2024-01-30T01:38:47;-0.40;99.90
3086;DHT22;52812;48.960;9.108;2024-01-30T01:41:12;-0.50;99.90
3086;DHT22;52812;48.960;9.108;2024-01-30T01:43:38;-0.50;99.90
3086;DHT22;52812;48.960;9.108;2024-01-30T01:46:05;-0.50;99.90
3086;DHT22;52812;48.960;9.108;2024-01-30T01:48:32;-0.60;99.90
3086;DHT22;52812;48.960;9.108;2024-01-30T01:50:59;-0.60;99.90
3086;DHT22;52812;48.960;9.108;2024-01-30T01:53:24;-0.60;99.90
3086;DHT22;52812;48.960;9.108;2024-01-30T01:55:51;-0.60;99.90
3086;DHT22;52812;48.960;9.108;2024-01-30T01:58:19;-0.60;99.90
3086;DHT22;52812;48.960;9.108;2024-01-30T02:00:46;-0.70;99.90
3086;DHT22;52812;48.960;9.108;2024-01-30T02:03:13;-0.70;99.90
3086;DHT22;52812;48.960;9.108;2024-01-30T02:05:41;-0.70;99.90
3086;DHT22;52812;48.960;9.108;2024-01-30T02:08:08;-0.70;99.90
3086;DHT22;52812;48.960;9.108;2024-01-30T02:10:34;-0.70;99.90
3086;DHT22;52812;48.960;9.108;2024-01-30T02:13:00;-0.70;99.90
3086;DHT22;52812;48.960;9.108;2024-01-30T02:15:25;-0.70;99.90
3086;DHT22;52812;48.960;9.108;2024-01-30T02:17:51;-0.80;99.90
3086;DHT22;52812;48.960;9.108;2024-01-30T02:20:17;-0.70;99.90
3086;DHT22;52812;48.960;9.108;2024-01-30T02:22:43;-0.70;99.90
3086;DHT22;52812;48.960;9.108;2024-01-30T02:25:08;-0.70;99.90
3086;DHT22;52812;48.960;9.108;2024-01-30T02:27:34;-0.80;99.90
3086;DHT22;52812;48.960;9.108;2024-01-30T02:30:00;-0.80;99.90
3086;DHT22;52812;48.960;9.108;2024-01-30T02:32:26;-0.90;99.90
3086;DHT22;52812;48.960;9.108;2024-01-30T02:34:51;-0.90;99.90
3086;DHT22;52812;48.960;9.108;2024-01-30T02:37:17;-0.90;99.90
3086;DHT22;52812;48.960;9.108;2024-01-30T02:39:43;-0.90;99.90
3086;DHT22;52812;48.960;9.108;2024-01-30T02:42:08;-1.00;99.90
3086;DHT22;52812;48.960;9.108;2024-01-30T02:44:34;-0.90;99.90
3086;DHT22;52812;48.960;9.108;2024-01-30T02:46:59;-0.90;99.90
3086;DHT22;52812;48.960;9.108;2024-01-30T02:49:25;-0.90;99.90
3086;DHT22;52812;48.960;9.108;2024-01-30T02:51:53;-0.90;99.90
3086;DHT22;52812;48.960;9.108;2024-01-30T02:54:19;-0.90;99.90
3086;DHT22;52812;48.960;9.108;2024-01-30T02:56:44;-0.90;99.90
3086;DHT22;52812;48.960;9.108;2024-01-30T02:59:10;-0.90;99.90
3086;DHT22;52812;48.960;9.108;2024-01-30T03:01:45;-0.90;99.90
3086;DHT22;52812;48.960;9.108;2024-01-30T03:04:12;-1.00;99.90
3086;DHT22;52812;48.960;9.108;2024-01-30T03:06:38;-1.00;99.90
3086;DHT22;52812;48.960;9.108;2024-01-30T03:09:03;-1.00;99.90
3086;DHT22;52812;48.960;9.108;2024-01-30T03:11:30;-1.00;99.90
3086;DHT22;52812;48.960;9.108;2024-01-30T03:13:56;-1.10;99.90
3086;DHT22;52812;48.960;9.108;2024-01-30T03:16:21;-1.10;99.90
3086;DHT22;52812;48.960;9.108;2024-01-30T03:18:47;-1.10;99.90
3086;DHT22;52812;48.960;9.108;2024-01-30T03:21:13;-1.10;99.90
3086;DHT22;52812;48.960;9.108;2024-01-30T03:23:39;-1.10;99.90
3086;DHT22;52812;48.960;9.108;2024-01-30T03:26:05;-1.10;99.90
3086;DHT22;52812;48.960;9.108;2024-01-30T03:28:32;-1.10;99.90
3086;DHT22;52812;48.960;9.108;2024-01-30T03:30:57;-1.10;99.90
3086;DHT22;52812;48.960;9.108;2024-01-30T03:33:23;-1.20;99.90
3086;DHT22;52812;48.960;9.108;2024-01-30T03:35:49;-1.20;99.90
3086;DHT22;52812;48.960;9.108;2024-01-30T03:38:14;-1.20;99.90
3086;DHT22;52812;48.960;9.108;2024-01-30T03:40:40;-1.20;99.90
3086;DHT22;52812;48.960;9.108;2024-01-30T03:43:05;-1.20;99.90
3086;DHT22;52812;48.960;9.108;2024-01-30T03:45:31;-1.20;99.90
3086;DHT22;52812;48.960;9.108;2024-01-30T03:47:57;-1.30;99.90
3086;DHT22;52812;48.960;9.108;2024-01-30T03:50:22;-1.30;99.90
3086;DHT22;52812;48.960;9.108;2024-01-30T03:52:48;-1.30;99.90
3086;DHT22;52812;48.960;9.108;2024-01-30T03:55:14;-1.30;99.90
3086;DHT22;52812;48.960;9.108;2024-01-30T03:57:39;-1.30;99.90
3086;DHT22;52812;48.960;9.108;2024-01-30T04:00:05;-1.20;99.90
3086;DHT22;52812;48.960;9.108;2024-01-30T04:02:31;-1.20;99.90
3086;DHT22;52812;48.960;9.108;2024-01-30T04:04:57;-1.20;99.90
3086;DHT22;52812;48.960;9.108;2024-01-30T04:07:22;-1.20;99.90
3086;DHT22;52812;48.960;9.108;2024-01-30T04:09:48;-1.30;99.90
3086;DHT22;52812;48.960;9.108;2024-01-30T04:12:13;-1.30;99.90
3086;DHT22;52812;48.960;9.108;2024-01-30T04:14:39;-1.40;99.90
3086;DHT22;52812;48.960;9.108;2024-01-30T04:17:05;-1.40;99.90
3086;DHT22;52812;48.960;9.108;2024-01-30T04:19:30;-1.40;99.90
3086;DHT22;52812;48.960;9.108;2024-01-30T04:21:56;-1.40;99.90
3086;DHT22;52812;48.960;9.108;2024-01-30T04:24:22;-1.40;99.90
3086;DHT22;52812;48.960;9.108;2024-01-30T04:26:47;-1.40;99.90
3086;DHT22;52812;48.960;9.108;2024-01-30T04:29:13;-1.40;99.90
3086;DHT22;52812;48.960;9.108;2024-01-30T04:31:38;-1.40;99.90
3086;DHT22;52812;48.960;9.108;2024-01-30T04:34:04;-1.40;99.90
3086;DHT22;52812;48.960;9.108;2024-01-30T04:36:30;-1.30;99.90
3086;DHT22;52812;48.960;9.108;2024-01-30T04:38:55;-1.30;99.90
3086;DHT22;52812;48.960;9.108;2024-01-30T04:41:21;-1.30;99.90
3086;DHT22;52812;48.960;9.108;2024-01-30T04:43:46;-1.20;99.90
3086;DHT22;52812;48.960;9.108;2024-01-30T04:46:12;-1.20;99.90
3086;DHT22;52812;48.960;9.108;2024-01-30T04:48:41;-1.10;99.90
3086;DHT22;52812;48.960;9.108;2024-01-30T04:51:06;-1.10;99.90
3086;DHT22;52812;48.960;9.108;2024-01-30T04:53:32;-1.10;99.90
3086;DHT22;52812;48.960;9.108;2024-01-30T04:55:58;-1.10;99.90
3086;DHT22;52812;48.960;9.108;2024-01-30T04:58:23;-1.20;99.90
3086;DHT22;52812;48.960;9.108;2024-01-30T05:00:49;-1.30;99.90
3086;DHT22;52812;48.960;9.108;2024-01-30T05:03:18;-1.30;99.90
3086;DHT22;52812;48.960;9.108;2024-01-30T05:05:44;-1.40;99.90
3086;DHT22;52812;48.960;9.108;2024-01-30T05:08:09;-1.40;99.90
3086;DHT22;52812;48.960;9.108;2024-01-30T05:10:35;-1.40;99.90
3086;DHT22;52812;48.960;9.108;2024-01-30T05:13:01;-1.40;99.90
3086;DHT22;52812;48.960;9.108;2024-01-30T05:15:26;-1.40;99.90
3086;DHT22;52812;48.960;9.108;2024-01-30T05:17:52;-1.40;99.90
3086;DHT22;52812;48.960;9.108;2024-01-30T05:20:17;-1.40;99.90
3086;DHT22;52812;48.960;9.108;2024-01-30T05:22:43;-1.40;99.90
3086;DHT22;52812;48.960;9.108;2024-01-30T05:25:11;-1.40;99.90
3086;DHT22;52812;48.960;9.108;2024-01-30T05:27:37;-1.40;99.90
3086;DHT22;52812;48.960;9.108;2024-01-30T05:30:03;-1.40;99.90
3086;DHT22;52812;48.960;9.108;2024-01-30T05:32:29;-1.50;99.90
3086;DHT22;52812;48.960;9.108;2024-01-30T05:34:54;-1.50;99.90
3086;DHT22;52812;48.960;9.108;2024-01-30T05:37:20;-1.50;99.90
3086;DHT22;52812;48.960;9.108;2024-01-30T05:39:45;-1.50;99.90
3086;DHT22;52812;48.960;9.108;2024-01-30T05:42:11;-1.50;99.90
3086;DHT22;52812;48.960;9.108;2024-01-30T05:44:37;-1.50;99.90
3086;DHT22;52812;48.960;9.108;2024-01-30T05:47:03;-1.50;99.90
3086;DHT22;52812;48.960;9.108;2024-01-30T05:49:28;-1.50;99.90
3086;DHT22;52812;48.960;9.108;2024-01-30T05:51:54;-1.50;99.90
3086;DHT22;52812;48.960;9.108;2024-01-30T05:54:20;-1.50;99.90
3086;DHT22;52812;48.960;9.108;2024-01-30T05:56:45;-1.50;99.90
3086;DHT22;52812;48.960;9.108;2024-01-30T05:59:11;-1.50;99.90
3086;DHT22;52812;48.960;9.108;2024-01-30T06:01:36;-1.50;99.90
3086;DHT22;52812;48.960;9.108;2024-01-30T06:04:02;-1.60;99.90
3086;DHT22;52812;48.960;9.108;2024-01-30T06:06:28;-1.60;99.90
3086;DHT22;52812;48.960;9.108;2024-01-30T06:08:53;-1.60;99.90
3086;DHT22;52812;48.960;9.108;2024-01-30T06:11:21;-1.60;99.90
3086;DHT22;52812;48.960;9.108;2024-01-30T06:13:47;-1.60;99.90
3086;DHT22;52812;48.960;9.108;2024-01-30T06:16:12;-1.60;99.90
3086;DHT22;52812;48.960;9.108;2024-01-30T06:18:38;-1.60;99.90
3086;DHT22;52812;48.960;9.108;2024-01-30T06:21:05;-1.60;99.90
3086;DHT22;52812;48.960;9.108;2024-01-30T06:23:30;-1.70;99.90
3086;DHT22;52812;48.960;9.108;2024-01-30T06:25:56;-1.70;99.90
3086;DHT22;52812;48.960;9.108;2024-01-30T06:28:21;-1.70;99.90
3086;DHT22;52812;48.960;9.108;2024-01-30T06:30:47;-1.70;99.90
3086;DHT22;52812;48.960;9.108;2024-01-30T06:33:13;-1.60;99.90
3086;DHT22;52812;48.960;9.108;2024-01-30T06:35:40;-1.60;99.90
3086;DHT22;52812;48.960;9.108;2024-01-30T06:38:06;-1.60;99.90
3086;DHT22;52812;48.960;9.108;2024-01-30T06:40:32;-1.60;99.90
3086;DHT22;52812;48.960;9.108;2024-01-30T06:42:57;-1.60;99.90
3086;DHT22;52812;48.960;9.108;2024-01-30T06:45:23;-1.60;99.90
3086;DHT22;52812;48.960;9.108;2024-01-30T06:47:48;-1.70;99.90
3086;DHT22;52812;48.960;9.108;2024-01-30T06:50:14;-1.70;99.90
3086;DHT22;52812;48.960;9.108;2024-01-30T06:52:40;-1.70;99.90
3086;DHT22;52812;48.960;9.108;2024-01-30T06:55:06;-1.70;99.90
3086;DHT22;52812;48.960;9.108;2024-01-30T06:57:31;-1.70;99.90
3086;DHT22;52812;48.960;9.108;2024-01-30T06:59:57;-1.60;99.90
3086;DHT22;52812;48.960;9.108;2024-01-30T07:02:23;-1.60;99.90
3086;DHT22;52812;48.960;9.108;2024-01-30T07:04:49;-1.60;99.90
3086;DHT22;52812;48.960;9.108;2024-01-30T07:07:15;-1.60;99.90
3086;DHT22;52812;48.960;9.108;2024-01-30T07:09:41;-1.50;99.90
3086;DHT22;52812;48.960;9.108;2024-01-30T07:12:07;-1.50;99.90
3086;DHT22;52812;48.960;9.108;2024-01-30T07:14:33;-1.50;99.90
3086;DHT22;52812;48.960;9.108;2024-01-30T07:16:59;-1.50;99.90
3086;DHT22;52812;48.960;9.108;2024-01-30T07:19:24;-1.40;99.90
3086;DHT22;52812;48.960;9.108;2024-01-30T07:21:53;-1.40;99.90
3086;DHT22;52812;48.960;9.108;2024-01-30T07:24:18;-1.40;99.90
3086;DHT22;52812;48.960;9.108;2024-01-30T07:26:44;-1.30;99.90
3086;DHT22;52812;48.960;9.108;2024-01-30T07:29:10;-1.20;99.90
3086;DHT22;52812;48.960;9.108;2024-01-30T07:31:35;-1.20;99.90
3086;DHT22;52812;48.960;9.108;2024-01-30T07:34:01;-1.20;99.90
3086;DHT22;52812;48.960;9.108;2024-01-30T07:36:27;-1.20;99.90
3086;DHT22;52812;48.960;9.108;2024-01-30T07:38:53;-1.10;99.90
3086;DHT22;52812;48.960;9.108;2024-01-30T07:41:20;-1.00;99.90
3086;DHT22;52812;48.960;9.108;2024-01-30T07:43:45;-1.10;99.90
3086;DHT22;52812;48.960;9.108;2024-01-30T07:46:11;-1.00;99.90
3086;DHT22;52812;48.960;9.108;2024-01-30T07:48:37;-1.00;99.90
3086;DHT22;52812;48.960;9.108;2024-01-30T07:51:02;-0.90;99.90
3086;DHT22;52812;48.960;9.108;2024-01-30T07:53:29;-0.90;99.90
3086;DHT22;52812;48.960;9.108;2024-01-30T07:55:54;-0.70;99.90
3086;DHT22;52812;48.960;9.108;2024-01-30T07:58:20;-0.70;99.90
3086;DHT22;52812;48.960;9.108;2024-01-30T08:00:46;-0.70;99.90
3086;DHT22;52812;48.960;9.108;2024-01-30T08:03:11;-0.60;99.90
3086;DHT22;52812;48.960;9.108;2024-01-30T08:05:38;-0.50;99.90
3086;DHT22;52812;48.960;9.108;2024-01-30T08:08:04;-0.40;99.90
3086;DHT22;52812;48.960;9.108;2024-01-30T08:10:30;-0.30;99.90
3086;DHT22;52812;48.960;9.108;2024-01-30T08:12:56;-0.20;99.90
3086;DHT22;52812;48.960;9.108;2024-01-30T08:15:21;-0.10;99.90
3086;DHT22;52812;48.960;9.108;2024-01-30T08:17:47;0.00;99.90
3086;DHT22;52812;48.960;9.108;2024-01-30T08:20:13;0.20;99.90
3086;DHT22;52812;48.960;9.108;2024-01-30T08:22:39;0.30;99.90
3086;DHT22;52812;48.960;9.108;2024-01-30T08:25:06;0.40;99.90
3086;DHT22;52812;48.960;9.108;2024-01-30T08:27:32;0.60;99.90
3086;DHT22;52812;48.960;9.108;2024-01-30T08:29:58;0.70;99.90
3086;DHT22;52812;48.960;9.108;2024-01-30T08:32:24;0.90;99.90
3086;DHT22;52812;48.960;9.108;2024-01-30T08:34:49;1.10;99.90
3086;DHT22;52812;48.960;9.108;2024-01-30T08:37:15;1.20;99.90
3086;DHT22;52812;48.960;9.108;2024-01-30T08:39:43;1.30;99.90
3086;DHT22;52812;48.960;9.108;2024-01-30T08:42:08;1.40;99.90
3086;DHT22;52812;48.960;9.108;2024-01-30T08:44:34;1.40;99.90
3086;DHT22;52812;48.960;9.108;2024-01-30T08:47:00;1.50;99.90
3086;DHT22;52812;48.960;9.108;2024-01-30T08:49:25;1.60;99.90
3086;DHT22;52812;48.960;9.108;2024-01-30T08:51:51;1.70;99.90
3086;DHT22;52812;48.960;9.108;2024-01-30T08:54:20;1.70;99.90
3086;DHT22;52812;48.960;9.108;2024-01-30T08:56:45;1.70;99.90
3086;DHT22;52812;48.960;9.108;2024-01-30T08:59:11;1.70;99.90
3086;DHT22;52812;48.960;9.108;2024-01-30T09:01:37;1.80;99.90
3086;DHT22;52812;48.960;9.108;2024-01-30T09:04:02;1.80;99.90
3086;DHT22;52812;48.960;9.108;2024-01-30T09:06:28;1.90;99.90
3086;DHT22;52812;48.960;9.108;2024-01-30T09:08:54;1.90;99.90
3086;DHT22;52812;48.960;9.108;2024-01-30T09:11:20;2.10;99.90
3086;DHT22;52812;48.960;9.108;2024-01-30T09:13:45;2.20;99.90
3086;DHT22;52812;48.960;9.108;2024-01-30T09:16:11;2.40;99.90
3086;DHT22;52812;48.960;9.108;2024-01-30T09:18:37;2.60;99.90
3086;DHT22;52812;48.960;9.108;2024-01-30T09:21:03;2.70;99.90
3086;DHT22;52812;48.960;9.108;2024-01-30T09:23:28;2.90;99.90
3086;DHT22;52812;48.960;9.108;2024-01-30T09:25:54;3.00;99.90
3086;DHT22;52812;48.960;9.108;2024-01-30T09:28:20;3.10;99.90
3086;DHT22;52812;48.960;9.108;2024-01-30T09:30:46;3.30;99.90
3086;DHT22;52812;48.960;9.108;2024-01-30T09:33:11;3.40;99.90
3086;DHT22;52812;48.960;9.108;2024-01-30T09:35:37;3.50;99.90
3086;DHT22;52812;48.960;9.108;2024-01-30T09:38:03;3.70;99.90
3086;DHT22;52812;48.960;9.108;2024-01-30T09:40:28;3.90;99.90
3086;DHT22;52812;48.960;9.108;2024-01-30T09:42:54;3.90;99.90
3086;DHT22;52812;48.960;9.108;2024-01-30T09:45:24;3.90;99.90
3086;DHT22;52812;48.960;9.108;2024-01-30T09:47:50;4.10;99.90
3086;DHT22;52812;48.960;9.108;2024-01-30T09:50:16;4.20;99.90
3086;DHT22;52812;48.960;9.108;2024-01-30T09:52:49;4.30;99.90
3086;DHT22;52812;48.960;9.108;2024-01-30T09:55:15;4.40;99.90
3086;DHT22;52812;48.960;9.108;2024-01-30T09:57:41;4.60;99.90
3086;DHT22;52812;48.960;9.108;2024-01-30T10:00:08;4.70;99.90
3086;DHT22;52812;48.960;9.108;2024-01-30T10:02:35;4.80;99.90
3086;DHT22;52812;48.960;9.108;2024-01-30T10:05:01;5.10;99.90
3086;DHT22;52812;48.960;9.108;2024-01-30T10:07:27;5.10;99.90
3086;DHT22;52812;48.960;9.108;2024-01-30T10:09:53;5.20;99.90
3086;DHT22;52812;48.960;9.108;2024-01-30T10:12:19;5.20;99.90
3086;DHT22;52812;48.960;9.108;2024-01-30T10:14:45;5.20;99.90
3086;DHT22;52812;48.960;9.108;2024-01-30T10:17:12;5.20;99.90
3086;DHT22;52812;48.960;9.108;2024-01-30T10:19:41;5.30;99.90
3086;DHT22;52812;48.960;9.108;2024-01-30T10:22:07;5.40;99.90
3086;DHT22;52812;48.960;9.108;2024-01-30T10:24:33;5.40;99.90
3086;DHT22;52812;48.960;9.108;2024-01-30T10:26:59;5.60;99.90
3086;DHT22;52812;48.960;9.108;2024-01-30T10:29:25;5.60;99.90
3086;DHT22;52812;48.960;9.108;2024-01-30T10:32:04;5.70;99.90
3086;DHT22;52812;48.960;9.108;2024-01-30T10:34:31;5.80;99.90
3086;DHT22;52812;48.960;9.108;2024-01-30T10:37:05;5.80;99.90
3086;DHT22;52812;48.960;9.108;2024-01-30T10:39:36;5.90;99.90
3086;DHT22;52812;48.960;9.108;2024-01-30T10:42:05;6.00;99.90
3086;DHT22;52812;48.960;9.108;2024-01-30T10:44:37;6.10;99.90
3086;DHT22;52812;48.960;9.108;2024-01-30T10:47:12;6.20;99.90
3086;DHT22;52812;48.960;9.108;2024-01-30T10:49:41;6.20;99.90
3086;DHT22;52812;48.960;9.108;2024-01-30T10:52:09;6.30;99.90
3086;DHT22;52812;48.960;9.108;2024-01-30T10:54:36;6.20;99.90
3086;DHT22;52812;48.960;9.108;2024-01-30T10:57:03;6.30;99.90
3086;DHT22;52812;48.960;9.108;2024-01-30T10:59:31;6.30;99.90
3086;DHT22;52812;48.960;9.108;2024-01-30T11:01:58;6.40;99.90
3086;DHT22;52812;48.960;9.108;2024-01-30T11:04:24;6.50;99.90
3086;DHT22;52812;48.960;9.108;2024-01-30T11:06:51;6.60;99.90
3086;DHT22;52812;48.960;9.108;2024-01-30T11:09:18;6.70;99.90
3086;DHT22;52812;48.960;9.108;2024-01-30T11:11:57;6.70;99.90
3086;DHT22;52812;48.960;9.108;2024-01-30T11:14:28;6.80;99.90
3086;DHT22;52812;48.960;9.108;2024-01-30T11:16:57;7.10;99.90
3086;DHT22;52812;48.960;9.108;2024-01-30T11:19:25;7.20;99.90
3086;DHT22;52812;48.960;9.108;2024-01-30T11:21:54;7.10;99.90
3086;DHT22;52812;48.960;9.108;2024-01-30T11:24:20;7.10;99.90
3086;DHT22;52812;48.960;9.108;2024-01-30T11:26:49;7.10;99.90
3086;DHT22;52812;48.960;9.108;2024-01-30T11:29:17;7.20;99.90
3086;DHT22;52812;48.960;9.108;2024-01-30T11:31:56;7.30;99.90
3086;DHT22;52812;48.960;9.108;2024-01-30T11:34:22;7.40;99.90
3086;DHT22;52812;48.960;9.108;2024-01-30T11:36:52;7.50;99.90
3086;DHT22;52812;48.960;9.108;2024-01-30T11:39:36;7.50;99.90
3086;DHT22;52812;48.960;9.108;2024-01-30T11:42:03;7.50;99.90
3086;DHT22;52812;48.960;9.108;2024-01-30T11:44:30;7.50;99.90
3086;DHT22;52812;48.960;9.108;2024-01-30T11:46:56;7.50;99.90
3086;DHT22;52812;48.960;9.108;2024-01-30T11:49:23;7.50;99.90
3086;DHT22;52812;48.960;9.108;2024-01-30T11:51:49;7.60;99.90
3086;DHT22;52812;48.960;9.108;2024-01-30T11:54:15;7.60;99.90
3086;DHT22;52812;48.960;9.108;2024-01-30T11:56:42;7.70;99.90
3086;DHT22;52812;48.960;9.108;2024-01-30T11:59:08;7.70;99.90
3086;DHT22;52812;48.960;9.108;2024-01-30T12:01:34;7.80;99.90
3086;DHT22;52812;48.960;9.108;2024-01-30T12:04:00;7.80;99.90
3086;DHT22;52812;48.960;9.108;2024-01-30T12:06:26;7.90;99.90
3086;DHT22;52812;48.960;9.108;2024-01-30T12:08:59;7.90;99.90
3086;DHT22;52812;48.960;9.108;2024-01-30T12:11:25;8.00;99.90
3086;DHT22;52812;48.960;9.108;2024-01-30T12:13:52;8.00;99.90
3086;DHT22;52812;48.960;9.108;2024-01-30T12:16:19;8.00;99.90
3086;DHT22;52812;48.960;9.108;2024-01-30T12:18:44;8.10;99.90
3086;DHT22;52812;48.960;9.108;2024-01-30T12:21:10;8.10;99.90
3086;DHT22;52812;48.960;9.108;2024-01-30T12:23:36;8.20;99.90
3086;DHT22;52812;48.960;9.108;2024-01-30T12:26:02;8.20;99.90
3086;DHT22;52812;48.960;9.108;2024-01-30T12:28:33;8.30;99.90
3086;DHT22;52812;48.960;9.108;2024-01-30T12:31:05;8.30;99.90
3086;DHT22;52812;48.960;9.108;2024-01-30T12:33:31;8.30;99.90
3086;DHT22;52812;48.960;9.108;2024-01-30T12:35:57;8.30;99.90
3086;DHT22;52812;48.960;9.108;2024-01-30T12:38:27;8.40;99.90
3086;DHT22;52812;48.960;9.108;2024-01-30T12:40:56;8.50;99.90
3086;DHT22;52812;48.960;9.108;2024-01-30T12:43:22;8.50;99.90
3086;DHT22;52812;48.960;9.108;2024-01-30T12:45:49;8.50;99.90
3086;DHT22;52812;48.960;9.108;2024-01-30T12:48:15;8.50;99.90
3086;DHT22;52812;48.960;9.108;2024-01-30T12:50:41;8.60;99.90
3086;DHT22;52812;48.960;9.108;2024-01-30T12:53:07;8.70;99.90
3086;DHT22;52812;48.960;9.108;2024-01-30T12:55:34;8.80;99.90
3086;DHT22;52812;48.960;9.108;2024-01-30T12:58:00;8.90;99.90
3086;DHT22;52812;48.960;9.108;2024-01-30T13:00:26;8.90;99.90
3086;DHT22;52812;48.960;9.108;2024-01-30T13:02:51;8.90;99.90
3086;DHT22;52812;48.960;9.108;2024-01-30T13:05:17;9.00;99.90
3086;DHT22;52812;48.960;9.108;2024-01-30T13:07:43;9.10;99.90
3086;DHT22;52812;48.960;9.108;2024-01-30T13:10:09;9.00;99.90
3086;DHT22;52812;48.960;9.108;2024-01-30T13:12:34;9.10;99.90
3086;DHT22;52812;48.960;9.108;2024-01-30T13:15:01;9.10;99.90
3086;DHT22;52812;48.960;9.108;2024-01-30T13:17:27;9.10;99.90
3086;DHT22;52812;48.960;9.108;2024-01-30T13:19:53;9.30;99.90
3086;DHT22;52812;48.960;9.108;2024-01-30T13:22:20;9.30;99.90
3086;DHT22;52812;48.960;9.108;2024-01-30T13:24:48;9.30;99.90
3086;DHT22;52812;48.960;9.108;2024-01-30T13:27:14;9.30;99.90
3086;DHT22;52812;48.960;9.108;2024-01-30T13:29:39;9.30;99.90
3086;DHT22;52812;48.960;9.108;2024-01-30T13:32:05;9.40;99.90
3086;DHT22;52812;48.960;9.108;2024-01-30T13:34:31;9.40;99.90
3086;DHT22;52812;48.960;9.108;2024-01-30T13:36:57;9.40;99.90
3086;DHT22;52812;48.960;9.108;2024-01-30T13:39:22;9.40;99.90
3086;DHT22;52812;48.960;9.108;2024-01-30T13:41:48;9.40;99.90
3086;DHT22;52812;48.960;9.108;2024-01-30T13:44:15;9.40;99.90
3086;DHT22;52812;48.960;9.108;2024-01-30T13:46:42;9.50;99.90
3086;DHT22;52812;48.960;9.108;2024-01-30T13:49:08;9.30;99.90
3086;DHT22;52812;48.960;9.108;2024-01-30T13:51:34;9.30;99.90
3086;DHT22;52812;48.960;9.108;2024-01-30T13:54:00;9.30;99.90
3086;DHT22;52812;48.960;9.108;2024-01-30T13:56:25;9.40;99.90
3086;DHT22;52812;48.960;9.108;2024-01-30T13:58:52;9.40;99.90
3086;DHT22;52812;48.960;9.108;2024-01-30T14:01:18;9.30;99.90
3086;DHT22;52812;48.960;9.108;2024-01-30T14:03:43;9.20;99.90
3086;DHT22;52812;48.960;9.108;2024-01-30T14:06:09;9.20;99.90
3086;DHT22;52812;48.960;9.108;2024-01-30T14:08:35;9.10;99.90
3086;DHT22;52812;48.960;9.108;2024-01-30T14:11:01;9.20;99.90
3086;DHT22;52812;48.960;9.108;2024-01-30T14:13:26;9.20;99.90
3086;DHT22;52812;48.960;9.108;2024-01-30T14:15:52;9.10;99.90
3086;DHT22;52812;48.960;9.108;2024-01-30T14:18:18;9.20;99.90
3086;DHT22;52812;48.960;9.108;2024-01-30T14:20:44;9.10;99.90
3086;DHT22;52812;48.960;9.108;2024-01-30T14:23:10;9.20;99.90
3086;DHT22;52812;48.960;9.108;2024-01-30T14:25:35;9.10;99.90
3086;DHT22;52812;48.960;9.108;2024-01-30T14:28:01;9.20;99.90
3086;DHT22;52812;48.960;9.108;2024-01-30T14:30:27;9.10;99.90
3086;DHT22;52812;48.960;9.108;2024-01-30T14:32:52;9.10;99.90
3086;DHT22;52812;48.960;9.108;2024-01-30T14:35:19;9.00;99.90
3086;DHT22;52812;48.960;9.108;2024-01-30T14:37:45;9.00;99.90
3086;DHT22;52812;48.960;9.108;2024-01-30T14:40:11;9.00;99.90
3086;DHT22;52812;48.960;9.108;2024-01-30T14:42:37;8.90;99.90
3086;DHT22;52812;48.960;9.108;2024-01-30T14:45:04;8.90;99.90
3086;DHT22;52812;48.960;9.108;2024-01-30T14:47:29;8.90;99.90
3086;DHT22;52812;48.960;9.108;2024-01-30T14:49:56;8.90;99.90
3086;DHT22;52812;48.960;9.108;2024-01-30T14:52:22;8.80;99.90
3086;DHT22;52812;48.960;9.108;2024-01-30T14:54:48;8.80;99.90
3086;DHT22;52812;48.960;9.108;2024-01-30T14:57:13;8.70;99.90
3086;DHT22;52812;48.960;9.108;2024-01-30T14:59:40;8.80;99.90
3086;DHT22;52812;48.960;9.108;2024-01-30T15:02:06;8.80;99.90
3086;DHT22;52812;48.960;9.108;2024-01-30T15:04:32;8.80;99.90
3086;DHT22;52812;48.960;9.108;2024-01-30T15:06:57;8.80;99.90
3086;DHT22;52812;48.960;9.108;2024-01-30T15:09:23;8.60;99.90
3086;DHT22;52812;48.960;9.108;2024-01-30T15:11:49;8.60;99.90
3086;DHT22;52812;48.960;9.108;2024-01-30T15:14:16;8.60;99.90
3086;DHT22;52812;48.960;9.108;2024-01-30T15:16:41;8.60;99.90
3086;DHT22;52812;48.960;9.108;2024-01-30T15:19:07;8.60;99.90
3086;DHT22;52812;48.960;9.108;2024-01-30T15:21:33;8.40;99.90
3086;DHT22;52812;48.960;9.108;2024-01-30T15:23:59;8.20;99.90
3086;DHT22;52812;48.960;9.108;2024-01-30T15:26:25;8.00;99.90
3086;DHT22;52812;48.960;9.108;2024-01-30T15:28:51;7.80;99.90
3086;DHT22;52812;48.960;9.108;2024-01-30T15:31:16;7.70;99.90
3086;DHT22;52812;48.960;9.108;2024-01-30T15:33:42;7.60;99.90
3086;DHT22;52812;48.960;9.108;2024-01-30T15:36:08;7.50;99.90
3086;DHT22;52812;48.960;9.108;2024-01-30T15:38:34;7.40;99.90
3086;DHT22;52812;48.960;9.108;2024-01-30T15:41:00;7.40;99.90
3086;DHT22;52812;48.960;9.108;2024-01-30T15:43:26;7.30;99.90
3086;DHT22;52812;48.960;9.108;2024-01-30T15:45:52;7.20;99.90